createdAt,value
2022-11-24T10:20:30.454Z,5.18
2022-11-24T10:23:44.518Z,4.07
2022-11-24T10:26:39.913Z,4.30
2022-11-24T10:29:22.920Z,5.10
2022-11-24T10:31:53.807Z,5.70
2022-11-24T10:34:32.481Z,4.80
2022-11-24T10:37:06.062Z,5.23
2022-11-24T10:39:41.053Z,4.30
2022-11-24T10:42:30.612Z,4.70
2022-11-24T10:45:16.569Z,5.50
2022-11-24T10:47:44.552Z,4.85
2022-11-24T10:50:35.859Z,4.43
2022-11-24T10:53:07.165Z,5.30
2022-11-24T10:55:55.874Z,4.78
2022-11-24T10:58:37.054Z,5.68
2022-11-24T11:01:13.577Z,5.22
2022-11-24T11:03:54.954Z,4.75
2022-11-24T11:06:24.804Z,4.28
2022-11-24T11:09:13.891Z,4.38
2022-11-24T11:11:41.774Z,4.95
2022-11-24T11:14:11.217Z,3.80
2022-11-24T11:19:56.852Z,4.00
2022-11-24T11:22:35.773Z,4.25
2022-11-24T11:25:07.585Z,3.57
2022-11-24T11:27:34.734Z,3.30
2022-11-24T11:35:51.369Z,3.42
2022-11-24T11:38:18.833Z,3.97
2022-11-24T11:40:49.942Z,3.85
2022-11-24T11:43:28.737Z,2.83
2022-11-24T11:46:09.416Z,4.38
2022-11-24T11:48:43.341Z,3.20
2022-11-24T11:51:25.908Z,2.60
2022-11-24T11:54:07.516Z,3.20
2022-11-24T11:56:40.962Z,3.20
2022-11-24T11:59:36.748Z,2.88
2022-11-24T12:02:03.323Z,2.17
2022-11-24T12:04:47.977Z,2.33
2022-11-24T12:07:33.046Z,2.42
2022-11-24T12:10:32.993Z,2.22
2022-11-24T12:13:20.093Z,2.15
2022-11-24T12:15:59.067Z,2.10
2022-11-24T12:18:57.221Z,2.63
2022-11-24T12:21:27.594Z,2.00
2022-11-24T12:26:57.241Z,2.28
2022-11-24T12:29:24.178Z,1.80
2022-11-24T12:32:26.086Z,1.88
2022-11-24T12:34:55.800Z,2.15
2022-11-24T12:37:40.404Z,2.15
2022-11-24T12:40:17.993Z,2.00
2022-11-24T12:42:50.971Z,2.17
2022-11-24T12:45:27.333Z,3.28
2022-11-24T12:48:03.859Z,3.35
2022-11-24T12:50:37.249Z,3.60
2022-11-24T12:53:24.989Z,2.30
2022-11-24T12:55:52.993Z,1.90
2022-11-24T12:58:29.691Z,1.40
2022-11-24T13:01:36.739Z,1.58
2022-11-24T13:04:31.264Z,1.80
2022-11-24T13:07:04.393Z,1.75
2022-11-24T13:09:31.162Z,2.08
2022-11-24T13:12:16.298Z,2.13
2022-11-24T13:14:45.123Z,1.58
2022-11-24T13:17:42.000Z,2.63
2022-11-24T13:20:25.516Z,1.80
2022-11-24T13:22:55.174Z,1.67
2022-11-24T13:25:29.248Z,1.70
2022-11-24T13:27:59.667Z,1.90
2022-11-24T13:30:38.326Z,2.10
2022-11-24T13:33:16.245Z,1.70
2022-11-24T13:36:01.805Z,1.70
2022-11-24T13:38:46.412Z,2.10
2022-11-24T13:41:59.037Z,2.00
2022-11-24T13:44:25.718Z,2.30
2022-11-24T13:47:33.754Z,2.30
2022-11-24T13:50:01.684Z,2.25
2022-11-24T13:52:40.451Z,1.63
2022-11-24T13:55:12.889Z,2.10
2022-11-24T13:57:40.905Z,2.13
2022-11-24T14:00:23.920Z,2.20
2022-11-24T14:02:59.013Z,2.88
2022-11-24T14:05:35.679Z,2.10
2022-11-24T14:08:04.954Z,1.42
2022-11-24T14:10:36.217Z,1.80
2022-11-24T14:13:21.235Z,1.88
2022-11-24T14:16:09.641Z,1.65
2022-11-24T14:18:38.779Z,1.97
2022-11-24T14:21:24.004Z,1.80
2022-11-24T14:24:00.139Z,1.30
2022-11-24T14:26:35.466Z,1.70
2022-11-24T14:29:20.467Z,2.15
2022-11-24T14:31:58.206Z,1.70
2022-11-24T14:34:28.032Z,2.17
2022-11-24T14:36:56.400Z,1.90
2022-11-24T14:39:25.398Z,1.85
2022-11-24T14:42:05.773Z,3.35
2022-11-24T14:44:45.407Z,2.17
2022-11-24T14:47:32.867Z,1.70
2022-11-24T14:50:16.249Z,1.52
2022-11-24T14:52:54.394Z,2.03
2022-11-24T14:55:30.149Z,1.80
2022-11-24T14:57:58.157Z,2.40
2022-11-24T15:00:24.803Z,2.55
2022-11-24T15:03:07.401Z,2.58
2022-11-24T15:05:52.035Z,2.47
2022-11-24T15:08:18.658Z,2.53
2022-11-24T15:10:45.768Z,2.58
2022-11-24T15:13:21.815Z,2.38
2022-11-24T15:15:56.329Z,2.22
2022-11-24T15:18:33.456Z,2.63
2022-11-24T15:21:00.116Z,2.58
2022-11-24T15:23:31.927Z,2.42
2022-11-24T15:26:18.473Z,3.00
2022-11-24T15:28:48.171Z,3.05
2022-11-24T15:31:15.095Z,3.53
2022-11-24T15:33:42.375Z,3.30
2022-11-24T15:36:09.039Z,3.53
2022-11-24T15:38:35.660Z,3.10
2022-11-24T15:41:02.421Z,3.50
2022-11-24T15:43:38.693Z,4.47
2022-11-24T15:46:08.228Z,4.20
2022-11-24T15:51:03.022Z,4.47
2022-11-24T15:53:34.585Z,3.88
2022-11-24T15:56:03.713Z,4.40
2022-11-24T15:58:30.291Z,4.15
2022-11-24T16:00:57.155Z,4.93
2022-11-24T16:03:46.344Z,6.18
2022-11-24T16:06:22.249Z,5.65
2022-11-24T16:08:51.160Z,5.40
2022-11-24T16:11:17.783Z,4.75
2022-11-24T16:13:48.550Z,4.88
2022-11-24T16:16:19.298Z,4.70
2022-11-24T16:18:46.049Z,3.92
2022-11-24T16:21:12.741Z,3.55
2022-11-24T16:23:39.377Z,2.95
2022-11-24T16:26:06.616Z,3.60
2022-11-24T16:28:33.462Z,4.35
2022-11-24T16:31:00.150Z,3.42
2022-11-24T16:33:28.718Z,3.92
2022-11-24T16:35:55.296Z,4.23
2022-11-24T16:38:21.922Z,3.42
2022-11-24T16:40:56.551Z,3.42
2022-11-24T16:43:24.477Z,4.20
2022-11-24T16:46:18.646Z,3.90
2022-11-24T16:48:46.876Z,3.80
2022-11-24T16:51:14.433Z,3.67
2022-11-24T16:53:41.386Z,3.45
2022-11-24T16:56:08.400Z,3.20
2022-11-24T16:58:38.027Z,3.47
2022-11-24T17:01:10.754Z,4.35
2022-11-24T17:03:37.963Z,4.28
2022-11-24T17:06:07.299Z,3.95
2022-11-24T17:08:35.875Z,4.80
2022-11-24T17:11:20.243Z,3.90
2022-11-24T17:13:49.104Z,3.80
2022-11-24T17:16:18.707Z,4.28
2022-11-24T17:18:45.684Z,4.43
2022-11-24T17:21:31.351Z,3.97
2022-11-24T17:24:05.215Z,4.20
2022-11-24T17:26:33.085Z,3.58
2022-11-24T17:28:59.721Z,2.90
2022-11-24T17:31:29.800Z,4.07
2022-11-24T17:33:58.006Z,4.40
2022-11-24T17:36:25.593Z,4.15
2022-11-24T17:38:52.656Z,3.92
2022-11-24T17:41:20.073Z,4.43
2022-11-24T17:43:51.130Z,3.95
2022-11-24T17:46:18.243Z,4.03
2022-11-24T17:48:45.071Z,3.58
2022-11-24T17:51:13.675Z,4.70
2022-11-24T17:53:42.405Z,4.03
2022-11-24T17:56:13.261Z,3.87
2022-11-24T17:58:43.129Z,4.68
2022-11-24T18:01:11.110Z,4.25
2022-11-24T18:03:39.415Z,4.18
2022-11-24T18:06:07.460Z,4.05
2022-11-24T18:08:34.600Z,4.50
2022-11-24T18:11:09.209Z,4.05
2022-11-24T18:14:03.016Z,3.55
2022-11-24T18:16:24.499Z,4.03
2022-11-24T18:19:07.311Z,4.60
2022-11-24T18:21:34.372Z,4.10
